Weather History for Clinton, IA

Change the Weather History Date:

Friday, March 9, 2012

  Actual Average Record
Temperature  
Mean Temperature 32 °F -  
Max Temperature 41 °F 46 °F 69 °F (1977)
Min Temperature 24 °F 25 °F 0 °F (2003)
Degree Days  
Heating Degree Days 32    
Moisture  
Dew Point 12 °F    
Average Humidity 45    
Maximum Humidity 75    
Minimum Humidity 26    
Precipitation  
Precipitation 0.00 in - - ()
Sea Level Pressure  
Sea Level Pressure 30.50 in    
Wind  
Wind Speed 11 mph (NNW)    
Max Wind Speed 22 mph    
Max Gust Speed 26 mph    
Visibility 10 miles    
Events      
Averages and records for this station are not official NWS values.
T = Trace of Precipitation, MM = Missing Value Source: NWS Daily Summary

Daily Weather History Graph

Daily Weather History Graph

Search for Another Location

Airport:

Trip Planner

Search our weather history database for the weather conditions in past years. The results will help you decide how hot, cold, wet, or windy it might be!

Date:

Astronomy

Mar. 09, 2012 Rise Set
Actual Time 6:22 AM CST 6:01 PM CST
Civil Twilight 5:54 AM CST 6:29 PM CST
Nautical Twilight 5:22 AM CST 7:01 PM CST
Astronomical Twilight 4:49 AM CST 7:34 PM CST
Moon 8:04 PM CST (3/9) 6:38 AM CST (3/9)
Length of Visible Light 12h 34m
Length of Day
11h 39m
Full, 97% of the Moon is Illuminated
Mar 9
Full
Mar 14
Last Quarter
Mar 22
New
Mar 30
First Quarter
Apr 6
Full

Hourly Weather History & Observations

Time (CST) Temp. Windchill Dew Point Humidity Pressure Visibility Wind Dir Wind Speed Gust Speed Precip Events Conditions
12:15 AM 32.0 °F 22.5 °F 24.8 °F 75% 30.29 in 10.0 mi West 12.7 mph - N/A   Clear
12:35 AM 33.8 °F 22.8 °F 24.8 °F 70% 30.30 in 10.0 mi WNW 18.4 mph - N/A   Clear
12:55 AM 35.6 °F 25.9 °F 24.8 °F 65% 30.32 in 10.0 mi WNW 16.1 mph - N/A   Clear
1:15 AM 35.6 °F 24.5 °F 23.0 °F 60% 30.34 in 10.0 mi NW 20.7 mph 24.2 mph N/A   Clear
1:35 AM 33.8 °F 23.5 °F 17.6 °F 52% 30.36 in 10.0 mi NW 16.1 mph - N/A   Clear
1:55 AM 33.8 °F 21.9 °F 10.4 °F 38% 30.37 in 10.0 mi NW 21.9 mph 26.5 mph N/A   Clear
2:15 AM 30.2 °F 19.3 °F 10.4 °F 44% 30.39 in 10.0 mi NW 15.0 mph 21.9 mph N/A   Clear
2:35 AM 30.2 °F 21.3 °F 14.0 °F 51% 30.39 in 10.0 mi WNW 10.4 mph - N/A   Clear
2:55 AM 28.4 °F 19.7 °F 17.6 °F 64% 30.40 in 10.0 mi WNW 9.2 mph - N/A   Clear
3:15 AM 26.6 °F 16.8 °F 19.4 °F 74% 30.41 in 10.0 mi West 10.4 mph - N/A   Clear
3:35 AM 26.6 °F 17.5 °F 17.6 °F 69% 30.42 in 10.0 mi WNW 9.2 mph - N/A   Clear
3:55 AM 26.6 °F 17.5 °F 15.8 °F 64% 30.43 in 10.0 mi WNW 9.2 mph - N/A   Clear
4:15 AM 26.6 °F 16.8 °F 15.8 °F 64% 30.44 in 10.0 mi WNW 10.4 mph - N/A   Clear
4:35 AM 26.6 °F 15.7 °F 17.6 °F 69% 30.44 in 10.0 mi WNW 12.7 mph - N/A   Clear
4:55 AM 26.6 °F 16.2 °F 17.6 °F 69% 30.46 in 10.0 mi WNW 11.5 mph - N/A   Clear
5:15 AM 24.8 °F 14.0 °F 15.8 °F 69% 30.46 in 10.0 mi NW 11.5 mph - N/A   Clear
5:35 AM 24.8 °F 14.6 °F 17.6 °F 74% 30.47 in 10.0 mi NW 10.4 mph - N/A   Clear
5:55 AM 26.6 °F 15.7 °F 15.8 °F 64% 30.49 in 10.0 mi NW 12.7 mph - N/A   Clear
6:15 AM 26.6 °F 15.7 °F 12.2 °F 55% 30.49 in 10.0 mi NW 12.7 mph - N/A   Clear
6:35 AM 24.8 °F 12.9 °F 10.4 °F 54% 30.51 in 10.0 mi NNW 13.8 mph - N/A   Clear
6:55 AM 26.6 °F 14.7 °F 8.6 °F 47% 30.51 in 10.0 mi NNW 15.0 mph - N/A   Clear
7:15 AM 26.6 °F 15.7 °F 10.4 °F 51% 30.53 in 10.0 mi NW 12.7 mph - N/A   Clear
7:35 AM 26.6 °F 15.2 °F 10.4 °F 51% 30.54 in 10.0 mi NNW 13.8 mph - N/A   Clear
7:55 AM 28.4 °F 15.8 °F 8.6 °F 43% 30.55 in 3.0 mi NNW 18.4 mph - N/A   Clear
8:15 AM 28.4 °F 16.6 °F 10.4 °F 47% 30.56 in 10.0 mi North 16.1 mph - N/A   Clear
8:55 AM 28.4 °F 17.0 °F 8.6 °F 43% 30.58 in 10.0 mi North 15.0 mph - N/A   Clear
9:15 AM 30.2 °F 20.2 °F 8.6 °F 40% 30.58 in 10.0 mi NNW 12.7 mph - N/A   Clear
9:35 AM 30.2 °F 20.2 °F 8.6 °F 40% 30.59 in 10.0 mi NNW 12.7 mph - N/A   Clear
9:55 AM 32.0 °F 24.2 °F 8.6 °F 38% 30.59 in 10.0 mi NNW 9.2 mph - N/A   Clear
10:15 AM 33.8 °F 25.3 °F 8.6 °F 35% 30.60 in 10.0 mi North 11.5 mph - N/A   Clear
10:35 AM 33.8 °F 27.0 °F 8.6 °F 35% 30.59 in 10.0 mi NNW 8.1 mph - N/A   Clear
10:55 AM 35.6 °F 28.6 °F 8.6 °F 33% 30.59 in 10.0 mi NNW 9.2 mph - N/A   Clear
11:15 AM 35.6 °F 29.2 °F 6.8 °F 30% 30.59 in 10.0 mi NNW 8.1 mph - N/A   Clear
11:35 AM 35.6 °F 29.9 °F 8.6 °F 33% 30.59 in 10.0 mi NNW 6.9 mph - N/A   Clear
11:55 AM 37.4 °F 31.4 °F 8.6 °F 30% 30.59 in 10.0 mi NNW 8.1 mph - N/A   Clear
12:15 PM 37.4 °F 32.1 °F 8.6 °F 30% 30.59 in 10.0 mi NW 6.9 mph - N/A   Clear
12:35 PM 37.4 °F 31.4 °F 8.6 °F 30% 30.58 in 10.0 mi North 8.1 mph - N/A   Clear
12:55 PM 37.4 °F 31.4 °F 8.6 °F 30% 30.58 in 10.0 mi NNW 8.1 mph - N/A   Clear
1:15 PM 39.2 °F 32.5 °F 8.6 °F 28% 30.57 in 10.0 mi NW 10.4 mph - N/A   Clear
1:35 PM 39.2 °F 32.5 °F 6.8 °F 26% 30.56 in 10.0 mi NNW 10.4 mph - N/A   Clear
1:55 PM 39.2 °F 34.2 °F 6.8 °F 26% 30.55 in 10.0 mi NW 6.9 mph - N/A   Clear
2:15 PM 39.2 °F 35.9 °F 8.6 °F 28% 30.55 in 10.0 mi NW 4.6 mph - N/A   Clear
2:35 PM 39.2 °F 33.6 °F 10.4 °F 31% 30.54 in 10.0 mi North 8.1 mph - N/A   Clear
2:55 PM 39.2 °F 37.0 °F 6.8 °F 26% 30.54 in 10.0 mi North 3.5 mph - N/A   Clear
3:15 PM 39.2 °F 35.0 °F 8.6 °F 28% 30.53 in 10.0 mi NNE 5.8 mph - N/A   Clear
3:35 PM 39.2 °F 35.0 °F 10.4 °F 31% 30.53 in 10.0 mi NNE 5.8 mph - N/A   Clear
3:55 PM 39.2 °F 35.0 °F 8.6 °F 28% 30.53 in 10.0 mi NNW 5.8 mph - N/A   Clear
4:15 PM 41.0 °F - 10.4 °F 29% 30.52 in 10.0 mi Calm Calm - N/A   Clear
4:35 PM 39.2 °F - 8.6 °F 28% 30.52 in 10.0 mi Calm Calm - N/A   Clear
4:55 PM 39.2 °F - 8.6 °F 28% 30.52 in 10.0 mi Calm Calm - N/A   Clear
5:15 PM 39.2 °F - 8.6 °F 28% 30.51 in 10.0 mi Calm Calm - N/A   Clear
5:35 PM 39.2 °F - 8.6 °F 28% 30.51 in 10.0 mi Calm Calm - N/A   Clear
5:55 PM 39.2 °F - 8.6 °F 28% 30.51 in 10.0 mi Calm Calm - N/A   Clear
6:15 PM 37.4 °F 34.9 °F 12.2 °F 36% 30.51 in 10.0 mi SE 3.5 mph - N/A   Clear
6:35 PM 33.8 °F 29.6 °F 15.8 °F 48% 30.51 in 10.0 mi East 4.6 mph - N/A   Clear
6:55 PM 32.0 °F 26.4 °F 15.8 °F 51% 30.51 in 10.0 mi East 5.8 mph - N/A   Clear
7:15 PM 30.2 °F 24.3 °F 14.0 °F 51% 30.51 in 10.0 mi East 5.8 mph - N/A   Clear
7:35 PM 30.2 °F 23.4 °F 15.8 °F 55% 30.50 in 10.0 mi East 6.9 mph - N/A   Clear
7:55 PM 30.2 °F 22.6 °F 15.8 °F 55% 30.50 in 10.0 mi East 8.1 mph - N/A   Clear
8:15 PM 30.2 °F 25.4 °F 17.6 °F 60% 30.51 in 10.0 mi ESE 4.6 mph - N/A   Clear
8:35 PM 32.0 °F 25.6 °F 14.0 °F 48% 30.50 in 10.0 mi SE 6.9 mph - N/A   Clear
8:55 PM 30.2 °F 23.4 °F 15.8 °F 55% 30.51 in 10.0 mi SE 6.9 mph - N/A   Clear
9:15 PM 30.2 °F 23.4 °F 17.6 °F 60% 30.50 in 10.0 mi SE 6.9 mph - N/A   Clear
9:35 PM 30.2 °F 22.6 °F 15.8 °F 55% 30.49 in 10.0 mi SE 8.1 mph - N/A   Clear
9:55 PM 32.0 °F 24.2 °F 14.0 °F 48% 30.48 in 10.0 mi SSE 9.2 mph - N/A   Clear
10:15 PM 30.2 °F 21.3 °F 15.8 °F 55% 30.47 in 10.0 mi SSE 10.4 mph - N/A   Clear
10:35 PM 32.0 °F 24.8 °F 15.8 °F 51% 30.47 in 10.0 mi SSE 8.1 mph - N/A   Clear
10:55 PM 32.0 °F 24.2 °F 14.0 °F 48% 30.47 in 10.0 mi SSE 9.2 mph - N/A   Clear
11:15 PM 30.2 °F 21.9 °F 15.8 °F 55% 30.47 in 10.0 mi SSE 9.2 mph - N/A   Clear
11:35 PM 30.2 °F 21.9 °F 15.8 °F 55% 30.46 in 10.0 mi SE 9.2 mph - N/A   Clear
11:55 PM 30.2 °F 21.3 °F 15.8 °F 55% 30.45 in 10.0 mi SSE 10.4 mph - N/A   Clear